Time;durP1;ratioP1;P1;durP2;ratioP2;P2;SDS_P1;SDS_P2;PMS_P1;PMS_P2;Temp;Humidity;BMP_temperature;BMP_pressure;BME280_temperature;BME280_humidity;BME280_pressure;Samples;Min_cycle;Max_cycle;Signal;HPM_P1;HPM_P2
2022/05/09 00:00:22;;;;;;;;;;;21.50;56.10;;;;;;5021765;28;19921;-55
2022/05/09 00:02:47;;;;;;;;;;;21.60;56.20;;;;;;5023039;28;19968;-54
2022/05/09 00:05:15;;;;;;;;;;;21.50;56.10;;;;;;5023537;28;20024;-56
2022/05/09 00:07:41;;;;;;;;;;;21.60;56.20;;;;;;5026397;28;19921;-53
2022/05/09 00:10:07;;;;;;;;;;;21.50;56.10;;;;;;5025603;28;19979;-55
2022/05/09 00:12:34;;;;;;;;;;;21.50;56.10;;;;;;5026005;28;20618;-56
2022/05/09 00:14:59;;;;;;;;;;;21.60;56.10;;;;;;5026598;28;20004;-56
2022/05/09 00:17:25;;;;;;;;;;;21.50;56.00;;;;;;5025206;28;20032;-54
2022/05/09 00:19:50;;;;;;;;;;;21.50;56.00;;;;;;5024415;28;19967;-54
2022/05/09 00:22:16;;;;;;;;;;;21.50;56.00;;;;;;5026816;28;19921;-54
2022/05/09 00:24:41;;;;;;;;;;;21.50;56.00;;;;;;5024656;28;20287;-56
2022/05/09 00:27:06;;;;;;;;;;;21.50;56.00;;;;;;5025870;28;19933;-56
2022/05/09 00:29:32;;;;;;;;;;;21.50;56.00;;;;;;5024520;28;19920;-54
2022/05/09 00:31:57;;;;;;;;;;;21.50;55.90;;;;;;5025728;28;19966;-56
2022/05/09 00:34:23;;;;;;;;;;;21.50;56.00;;;;;;5024392;28;20422;-55
2022/05/09 00:36:48;;;;;;;;;;;21.50;55.90;;;;;;5024788;28;19958;-56
2022/05/09 00:39:14;;;;;;;;;;;21.50;55.90;;;;;;5024745;28;19992;-56
2022/05/09 00:41:43;;;;;;;;;;;21.50;55.90;;;;;;5023725;28;20290;-55
2022/05/09 00:44:12;;;;;;;;;;;21.50;55.90;;;;;;5023742;28;19920;-57
2022/05/09 00:46:42;;;;;;;;;;;21.50;56.50;;;;;;5025629;28;19940;-55
2022/05/09 00:49:13;;;;;;;;;;;21.40;55.80;;;;;;5023175;28;19921;-55
2022/05/09 00:51:39;;;;;;;;;;;21.50;55.90;;;;;;5025478;28;20057;-59
2022/05/09 00:54:04;;;;;;;;;;;21.50;55.90;;;;;;5022966;28;20374;-56
2022/05/09 00:56:35;;;;;;;;;;;21.50;55.90;;;;;;5023516;28;19967;-57
2022/05/09 00:59:03;;;;;;;;;;;21.40;55.80;;;;;;5023340;28;19971;-55
2022/05/09 01:01:28;;;;;;;;;;;21.50;55.90;;;;;;5023290;28;20382;-55
2022/05/09 01:03:58;;;;;;;;;;;21.40;55.80;;;;;;5023001;28;19920;-53
2022/05/09 01:06:24;;;;;;;;;;;21.50;55.80;;;;;;5023761;28;19917;-55
2022/05/09 01:08:49;;;;;;;;;;;21.40;55.70;;;;;;5023274;28;19978;-55
2022/05/09 01:11:16;;;;;;;;;;;21.40;55.70;;;;;;5025491;28;19956;-55
2022/05/09 01:13:43;;;;;;;;;;;21.50;55.80;;;;;;5023426;28;20147;-56
2022/05/09 01:16:09;;;;;;;;;;;21.40;55.70;;;;;;5025057;28;20444;-54
2022/05/09 01:18:36;;;;;;;;;;;21.40;55.70;;;;;;5021708;28;19917;-56
2022/05/09 01:21:02;;;;;;;;;;;21.50;55.80;;;;;;5015140;28;19920;-55
2022/05/09 01:23:32;;;;;;;;;;;21.40;55.70;;;;;;5024296;28;20481;-56
2022/05/09 01:25:57;;;;;;;;;;;21.50;55.70;;;;;;5024405;28;19919;-55
2022/05/09 01:28:23;;;;;;;;;;;21.40;55.70;;;;;;5022945;28;20747;-56
2022/05/09 01:30:59;;;;;;;;;;;21.50;55.70;;;;;;5022693;28;19917;-55
2022/05/09 01:33:28;;;;;;;;;;;21.40;55.70;;;;;;5022850;28;20255;-54
2022/05/09 01:35:54;;;;;;;;;;;21.40;55.70;;;;;;5022632;28;19924;-57
2022/05/09 01:38:19;;;;;;;;;;;21.40;55.70;;;;;;5023491;28;20303;-55
2022/05/09 01:40:45;;;;;;;;;;;21.40;55.60;;;;;;5023927;28;19914;-54
2022/05/09 01:43:11;;;;;;;;;;;21.40;55.60;;;;;;5023260;28;19944;-55
2022/05/09 01:45:36;;;;;;;;;;;21.40;55.60;;;;;;5021836;28;20020;-54
2022/05/09 01:50:46;;;;;;;;;;;21.40;55.60;;;;;;5023676;28;19924;-53
2022/05/09 01:53:11;;;;;;;;;;;21.40;55.60;;;;;;5024501;28;19917;-54
2022/05/09 01:55:37;;;;;;;;;;;21.40;55.50;;;;;;5024035;28;19959;-54
2022/05/09 01:58:02;;;;;;;;;;;21.40;55.60;;;;;;5024138;28;19975;-56
2022/05/09 02:00:28;;;;;;;;;;;21.40;55.50;;;;;;5025440;28;19939;-56
2022/05/09 02:02:54;;;;;;;;;;;21.40;55.50;;;;;;5026418;28;19924;-54
2022/05/09 02:05:19;;;;;;;;;;;21.40;55.50;;;;;;5023962;28;19967;-56
2022/05/09 02:07:45;;;;;;;;;;;21.40;55.50;;;;;;5024149;28;19921;-57
2022/05/09 02:10:11;;;;;;;;;;;21.40;55.50;;;;;;5022968;28;20597;-56
2022/05/09 02:12:36;;;;;;;;;;;21.40;55.50;;;;;;5005627;28;19913;-56
2022/05/09 02:15:02;;;;;;;;;;;21.30;55.50;;;;;;5023326;28;20285;-55
2022/05/09 02:17:29;;;;;;;;;;;21.30;56.10;;;;;;5023658;28;19914;-57
2022/05/09 02:19:55;;;;;;;;;;;21.30;55.50;;;;;;5021191;28;19914;-55
2022/05/09 02:22:20;;;;;;;;;;;21.30;55.40;;;;;;5023586;28;19914;-55
2022/05/09 02:24:46;;;;;;;;;;;21.30;55.40;;;;;;5023962;28;20120;-52
2022/05/09 02:27:12;;;;;;;;;;;21.30;55.40;;;;;;5023616;28;19921;-55
2022/05/09 02:29:39;;;;;;;;;;;21.30;55.40;;;;;;5019112;28;20577;-54
2022/05/09 02:32:05;;;;;;;;;;;21.30;56.10;;;;;;5021642;28;19979;-57
2022/05/09 02:34:30;;;;;;;;;;;21.30;55.40;;;;;;5023218;28;19917;-55
2022/05/09 02:36:56;;;;;;;;;;;21.30;55.40;;;;;;5023820;28;19917;-57
2022/05/09 02:39:21;;;;;;;;;;;21.30;55.40;;;;;;5022249;28;20330;-55
2022/05/09 02:41:48;;;;;;;;;;;21.30;55.40;;;;;;5023822;28;20661;-53
2022/05/09 02:44:13;;;;;;;;;;;21.30;55.30;;;;;;5022538;28;19936;-54
2022/05/09 02:46:40;;;;;;;;;;;21.20;55.30;;;;;;5022935;28;19913;-57
2022/05/09 02:49:05;;;;;;;;;;;21.30;55.30;;;;;;5022249;28;19917;-55
2022/05/09 02:51:31;;;;;;;;;;;21.30;55.30;;;;;;5017444;28;20024;-57
2022/05/09 02:53:57;;;;;;;;;;;21.20;55.20;;;;;;5022713;28;19917;-57
2022/05/09 02:56:23;;;;;;;;;;;21.30;55.30;;;;;;5021673;28;19920;-56
2022/05/09 02:58:48;;;;;;;;;;;21.20;55.30;;;;;;5020797;28;20290;-56
2022/05/09 03:01:13;;;;;;;;;;;21.20;55.30;;;;;;5023512;28;19913;-56
2022/05/09 03:06:23;;;;;;;;;;;21.20;55.20;;;;;;5023369;28;19919;-56
2022/05/09 03:08:48;;;;;;;;;;;21.20;55.20;;;;;;5019165;28;19921;-56
2022/05/09 03:11:14;;;;;;;;;;;21.20;55.20;;;;;;5021713;28;20387;-57
2022/05/09 03:13:39;;;;;;;;;;;21.20;55.20;;;;;;5021791;28;20125;-55
2022/05/09 03:16:05;;;;;;;;;;;21.20;55.20;;;;;;5023037;28;19924;-53
2022/05/09 03:18:31;;;;;;;;;;;21.20;55.20;;;;;;5021730;28;20424;-55
2022/05/09 03:20:57;;;;;;;;;;;21.20;55.20;;;;;;5021486;28;19913;-55
2022/05/09 03:23:22;;;;;;;;;;;21.20;55.20;;;;;;5022668;28;19925;-55
2022/05/09 03:25:47;;;;;;;;;;;21.20;55.10;;;;;;5022681;28;19913;-57
2022/05/09 03:28:14;;;;;;;;;;;21.20;55.20;;;;;;5021422;28;19971;-56
2022/05/09 03:30:39;;;;;;;;;;;21.20;55.10;;;;;;5020104;28;19913;-55
2022/05/09 03:33:06;;;;;;;;;;;21.20;55.20;;;;;;5021237;28;20770;-57
2022/05/09 03:35:31;;;;;;;;;;;21.20;55.20;;;;;;5022849;28;19917;-55
2022/05/09 03:37:57;;;;;;;;;;;21.10;55.00;;;;;;5023394;28;19948;-55
2022/05/09 03:40:23;;;;;;;;;;;21.10;55.00;;;;;;5020156;28;19928;-56
2022/05/09 03:42:48;;;;;;;;;;;21.10;55.00;;;;;;5020741;28;19925;-57
2022/05/09 03:45:14;;;;;;;;;;;21.10;55.00;;;;;;5020053;28;19918;-55
2022/05/09 03:47:39;;;;;;;;;;;21.10;55.00;;;;;;5022023;28;19924;-56
2022/05/09 03:50:05;;;;;;;;;;;21.10;55.00;;;;;;5019884;28;19924;-54
2022/05/09 03:52:30;;;;;;;;;;;21.10;55.00;;;;;;5022594;28;19944;-56
2022/05/09 03:54:57;;;;;;;;;;;21.10;55.00;;;;;;5022378;28;19939;-57
2022/05/09 03:57:23;;;;;;;;;;;21.10;55.00;;;;;;5021632;28;19952;-57
2022/05/09 03:59:48;;;;;;;;;;;21.10;55.00;;;;;;5020921;28;19949;-62
2022/05/09 04:02:14;;;;;;;;;;;21.10;55.00;;;;;;5023101;28;20123;-55
2022/05/09 04:04:39;;;;;;;;;;;21.10;55.00;;;;;;5022345;28;20488;-54
2022/05/09 04:07:04;;;;;;;;;;;21.10;55.00;;;;;;5021153;28;19929;-56
2022/05/09 04:09:30;;;;;;;;;;;21.10;55.00;;;;;;5020706;28;19917;-55
2022/05/09 04:11:55;;;;;;;;;;;21.00;55.00;;;;;;5021788;28;19928;-57
2022/05/09 04:16:49;;;;;;;;;;;21.10;55.00;;;;;;5022297;28;20355;-57
2022/05/09 04:17:07;;;;;;;;;;;21.10;55.00;;;;;;5002684;28;19922;-55
2022/05/09 04:19:33;;;;;;;;;;;21.10;55.00;;;;;;5001760;28;19917;-56
2022/05/09 04:22:00;;;;;;;;;;;21.10;55.00;;;;;;5021303;28;20333;-56
2022/05/09 04:24:25;;;;;;;;;;;21.10;55.00;;;;;;5018911;28;20390;-56
2022/05/09 04:26:51;;;;;;;;;;;21.10;54.90;;;;;;5020164;28;19924;-55
2022/05/09 04:29:16;;;;;;;;;;;21.10;54.90;;;;;;5021850;28;20298;-54
2022/05/09 04:31:42;;;;;;;;;;;21.10;54.90;;;;;;5020393;28;19917;-53
2022/05/09 04:34:07;;;;;;;;;;;21.10;54.80;;;;;;5021112;28;19921;-56
2022/05/09 04:36:33;;;;;;;;;;;21.10;55.00;;;;;;5021844;28;19913;-56
2022/05/09 04:38:59;;;;;;;;;;;21.10;55.30;;;;;;5020757;28;19917;-56
2022/05/09 04:41:25;;;;;;;;;;;21.10;55.80;;;;;;5021279;28;19923;-55
2022/05/09 04:43:50;;;;;;;;;;;21.10;55.50;;;;;;5022026;28;19975;-56
2022/05/09 04:46:16;;;;;;;;;;;21.10;55.60;;;;;;5022763;28;19960;-55
2022/05/09 04:48:43;;;;;;;;;;;21.10;55.60;;;;;;5019214;28;20238;-55
2022/05/09 04:51:09;;;;;;;;;;;21.20;55.50;;;;;;5022631;28;19921;-56
2022/05/09 04:53:34;;;;;;;;;;;21.20;55.80;;;;;;5024462;28;20276;-55
2022/05/09 04:56:00;;;;;;;;;;;21.10;55.70;;;;;;5025050;28;19917;-56
2022/05/09 04:58:26;;;;;;;;;;;21.10;55.70;;;;;;5024653;28;20413;-55
2022/05/09 05:00:51;;;;;;;;;;;21.10;55.80;;;;;;5025472;28;20477;-56
2022/05/09 05:03:17;;;;;;;;;;;21.10;56.00;;;;;;5024788;28;20507;-56
2022/05/09 05:05:42;;;;;;;;;;;21.10;56.20;;;;;;5024450;28;19940;-56
2022/05/09 05:08:07;;;;;;;;;;;21.10;56.30;;;;;;5024996;28;19921;-56
2022/05/09 05:10:33;;;;;;;;;;;21.10;56.20;;;;;;5021824;28;20004;-55
2022/05/09 05:12:58;;;;;;;;;;;21.10;56.40;;;;;;5025515;28;19913;-56
2022/05/09 05:15:24;;;;;;;;;;;21.20;56.70;;;;;;5025355;28;19940;-57
2022/05/09 05:17:50;;;;;;;;;;;21.20;56.70;;;;;;5023503;28;20619;-53
2022/05/09 05:20:15;;;;;;;;;;;21.20;57.10;;;;;;5023925;28;19917;-56
2022/05/09 05:22:41;;;;;;;;;;;21.20;56.90;;;;;;5023966;28;19932;-54
2022/05/09 05:25:07;;;;;;;;;;;21.20;57.10;;;;;;5024028;28;19917;-56
2022/05/09 05:27:33;;;;;;;;;;;21.20;57.10;;;;;;5024345;28;20440;-56
2022/05/09 05:29:59;;;;;;;;;;;21.20;57.30;;;;;;5022486;28;19918;-54
2022/05/09 05:32:28;;;;;;;;;;;21.20;57.10;;;;;;5022057;28;19924;-55
2022/05/09 05:34:54;;;;;;;;;;;21.20;57.10;;;;;;5024123;28;19964;-57
2022/05/09 05:37:19;;;;;;;;;;;21.20;57.10;;;;;;5021826;28;19959;-57
2022/05/09 05:39:45;;;;;;;;;;;21.20;57.20;;;;;;5022155;28;19917;-56
2022/05/09 05:42:10;;;;;;;;;;;21.20;57.20;;;;;;5023992;28;19913;-57
2022/05/09 05:44:37;;;;;;;;;;;21.20;57.30;;;;;;5022135;28;19921;-55
2022/05/09 05:47:06;;;;;;;;;;;21.20;57.30;;;;;;5022590;28;19921;-56
2022/05/09 05:49:32;;;;;;;;;;;21.20;57.30;;;;;;5021194;28;20117;-56
2022/05/09 05:52:02;;;;;;;;;;;21.20;57.30;;;;;;5022392;28;19913;-55
2022/05/09 05:54:28;;;;;;;;;;;21.20;57.30;;;;;;5023876;28;19913;-56
2022/05/09 05:56:53;;;;;;;;;;;21.20;57.10;;;;;;5020661;28;20466;-55
2022/05/09 05:59:19;;;;;;;;;;;21.20;57.30;;;;;;5016498;28;19919;-55
2022/05/09 06:01:44;;;;;;;;;;;21.20;57.40;;;;;;5029023;28;20374;-56
2022/05/09 06:04:09;;;;;;;;;;;21.20;57.30;;;;;;5008194;28;20122;-56
2022/05/09 06:06:35;;;;;;;;;;;21.20;57.30;;;;;;5019328;28;19971;-56
2022/05/09 06:09:01;;;;;;;;;;;21.20;57.30;;;;;;5013812;28;19931;-56
2022/05/09 06:11:27;;;;;;;;;;;21.10;57.30;;;;;;5018076;28;19921;-56
2022/05/09 06:13:52;;;;;;;;;;;21.20;57.30;;;;;;5010877;28;20263;-56
2022/05/09 06:16:18;;;;;;;;;;;21.20;57.40;;;;;;5022136;28;19917;-55
2022/05/09 06:18:45;;;;;;;;;;;21.20;57.40;;;;;;5011910;28;19923;-55
2022/05/09 06:21:10;;;;;;;;;;;21.20;57.30;;;;;;5019895;28;20426;-56
2022/05/09 06:23:36;;;;;;;;;;;21.10;57.20;;;;;;5021383;23;19932;-52
2022/05/09 06:26:01;;;;;;;;;;;21.10;57.30;;;;;;5025032;28;20278;-51
2022/05/09 06:28:27;;;;;;;;;;;21.10;57.60;;;;;;5013660;28;20316;-52
2022/05/09 06:30:53;;;;;;;;;;;21.10;57.60;;;;;;5022824;28;19920;-50
2022/05/09 06:33:24;;;;;;;;;;;21.10;57.60;;;;;;5025009;28;19923;-52
2022/05/09 06:35:50;;;;;;;;;;;21.10;57.70;;;;;;5024051;28;19936;-52
2022/05/09 06:38:17;;;;;;;;;;;21.10;57.70;;;;;;5023621;28;19913;-54
2022/05/09 06:40:42;;;;;;;;;;;21.10;57.80;;;;;;5010654;28;19920;-50
2022/05/09 06:43:08;;;;;;;;;;;21.10;57.70;;;;;;5024618;28;19913;-52
2022/05/09 06:45:33;;;;;;;;;;;21.10;57.80;;;;;;4994056;28;20405;-52
2022/05/09 06:47:59;;;;;;;;;;;21.10;57.80;;;;;;5024505;28;19928;-53
2022/05/09 06:50:32;;;;;;;;;;;21.10;57.70;;;;;;4996988;28;19917;-52
2022/05/09 06:52:58;;;;;;;;;;;21.10;57.80;;;;;;5024290;28;20382;-52
2022/05/09 06:55:23;;;;;;;;;;;21.00;57.70;;;;;;5010529;28;20004;-53
2022/05/09 06:57:52;;;;;;;;;;;21.00;57.70;;;;;;5024692;28;19919;-52
2022/05/09 07:00:19;;;;;;;;;;;21.10;57.80;;;;;;5012292;28;19975;-52
2022/05/09 07:02:45;;;;;;;;;;;21.10;57.70;;;;;;5025347;28;19913;-53
2022/05/09 07:05:11;;;;;;;;;;;21.00;57.70;;;;;;5012608;28;19921;-50
2022/05/09 07:07:36;;;;;;;;;;;21.00;57.60;;;;;;5025694;28;19917;-50
2022/05/09 07:10:02;;;;;;;;;;;21.00;57.50;;;;;;5000765;28;19913;-52
2022/05/09 07:12:28;;;;;;;;;;;21.00;57.50;;;;;;5026338;28;19913;-51
2022/05/09 07:14:53;;;;;;;;;;;21.10;57.50;;;;;;5013370;28;19920;-51
2022/05/09 07:17:19;;;;;;;;;;;21.10;57.50;;;;;;5026652;28;19919;-51
2022/05/09 07:19:44;;;;;;;;;;;21.10;57.50;;;;;;5011318;28;20029;-50
2022/05/09 07:22:10;;;;;;;;;;;21.00;57.60;;;;;;5015923;28;19917;-51
2022/05/09 07:24:35;;;;;;;;;;;21.00;57.30;;;;;;5007006;28;19928;-51
2022/05/09 07:27:01;;;;;;;;;;;21.00;57.40;;;;;;5024963;28;19967;-49
2022/05/09 07:29:26;;;;;;;;;;;21.00;57.10;;;;;;5021195;28;19917;-52
2022/05/09 07:31:52;;;;;;;;;;;21.00;57.30;;;;;;5032905;28;20366;-52
2022/05/09 07:34:17;;;;;;;;;;;21.00;57.10;;;;;;5020570;28;19962;-50
2022/05/09 07:36:43;;;;;;;;;;;21.00;57.10;;;;;;5033631;28;19919;-52
2022/05/09 07:39:08;;;;;;;;;;;21.00;56.90;;;;;;5020045;28;19983;-53
2022/05/09 07:41:34;;;;;;;;;;;21.00;57.00;;;;;;5034653;28;19913;-53
2022/05/09 07:43:59;;;;;;;;;;;21.00;56.60;;;;;;5019914;28;19952;-52
2022/05/09 07:46:24;;;;;;;;;;;21.00;56.30;;;;;;5035488;28;19917;-52
2022/05/09 07:48:50;;;;;;;;;;;21.00;56.30;;;;;;5017871;28;19964;-51
2022/05/09 07:51:16;;;;;;;;;;;21.00;56.20;;;;;;5036757;28;19920;-52
2022/05/09 07:53:41;;;;;;;;;;;21.00;56.40;;;;;;5017754;28;19967;-52
2022/05/09 07:56:07;;;;;;;;;;;21.00;56.30;;;;;;5037530;28;19971;-50
2022/05/09 07:58:33;;;;;;;;;;;21.00;56.20;;;;;;5014667;28;19917;-54
2022/05/09 08:00:59;;;;;;;;;;;20.90;56.30;;;;;;5038980;28;19913;-50
2022/05/09 08:03:24;;;;;;;;;;;21.00;56.20;;;;;;5014931;28;20286;-54
2022/05/09 08:05:50;;;;;;;;;;;21.00;56.20;;;;;;5039937;28;19917;-53
2022/05/09 08:08:15;;;;;;;;;;;21.00;56.20;;;;;;5025876;28;19917;-53
2022/05/09 08:10:41;;;;;;;;;;;20.90;55.90;;;;;;5017294;28;19935;-50
2022/05/09 08:13:07;;;;;;;;;;;21.00;56.00;;;;;;5024619;28;20290;-51
2022/05/09 08:15:34;;;;;;;;;;;21.00;55.80;;;;;;5023108;28;20178;-52
2022/05/09 08:18:01;;;;;;;;;;;21.00;55.90;;;;;;5024935;28;19920;-52
2022/05/09 08:20:26;;;;;;;;;;;21.00;55.80;;;;;;5023799;28;19912;-54
2022/05/09 08:22:58;;;;;;;;;;;21.00;55.70;;;;;;5024677;28;19925;-51
2022/05/09 08:25:24;;;;;;;;;;;21.00;55.70;;;;;;5023339;28;19913;-54
2022/05/09 08:27:49;;;;;;;;;;;21.00;55.80;;;;;;5027837;28;19922;-53
2022/05/09 08:30:15;;;;;;;;;;;20.90;55.70;;;;;;5025992;28;19913;-51
2022/05/09 08:32:42;;;;;;;;;;;21.00;55.80;;;;;;5028740;28;19913;-52
2022/05/09 08:35:09;;;;;;;;;;;21.00;55.70;;;;;;5024965;28;20059;-51
2022/05/09 08:37:35;;;;;;;;;;;21.00;55.80;;;;;;5028649;28;20370;-53
2022/05/09 08:40:01;;;;;;;;;;;21.00;55.80;;;;;;5023113;28;20019;-54
2022/05/09 08:42:35;;;;;;;;;;;21.00;55.80;;;;;;5030232;28;20535;-51
2022/05/09 08:45:32;;;;;;;;;;;20.90;55.70;;;;;;5013549;28;19913;-52
2022/05/09 08:47:58;;;;;;;;;;;20.90;55.70;;;;;;4982112;28;20564;-52
2022/05/09 08:50:37;;;;;;;;;;;21.00;55.80;;;;;;5025697;28;19947;-52
2022/05/09 08:53:03;;;;;;;;;;;20.90;55.80;;;;;;5026744;28;19940;-52
2022/05/09 08:55:32;;;;;;;;;;;21.00;55.90;;;;;;5026218;28;19992;-53
2022/05/09 08:58:03;;;;;;;;;;;20.90;55.80;;;;;;5026302;28;19924;-54
2022/05/09 09:00:31;;;;;;;;;;;20.90;55.80;;;;;;5025836;28;20537;-54
2022/05/09 09:03:01;;;;;;;;;;;20.90;55.80;;;;;;5025666;28;20394;-54
2022/05/09 09:05:28;;;;;;;;;;;20.90;55.80;;;;;;5012839;28;19917;-53
2022/05/09 09:08:09;;;;;;;;;;;20.90;55.80;;;;;;5026231;28;20008;-51
2022/05/09 09:10:42;;;;;;;;;;;20.90;55.80;;;;;;5026003;28;19912;-54
2022/05/09 09:13:19;;;;;;;;;;;20.90;55.80;;;;;;5027508;28;20008;-53
2022/05/09 09:15:59;;;;;;;;;;;20.90;55.80;;;;;;5024711;28;19989;-53
2022/05/09 09:18:25;;;;;;;;;;;20.90;55.80;;;;;;5012990;28;20687;-52
2022/05/09 09:21:00;;;;;;;;;;;20.90;55.80;;;;;;5040691;28;19921;-52
2022/05/09 09:23:38;;;;;;;;;;;20.90;55.80;;;;;;5010860;28;19948;-52
2022/05/09 09:26:20;;;;;;;;;;;20.90;55.80;;;;;;5039610;28;19917;-52
2022/05/09 09:28:49;;;;;;;;;;;20.90;55.90;;;;;;5013803;28;19921;-55
2022/05/09 09:31:16;;;;;;;;;;;20.90;55.80;;;;;;5025361;28;20288;-53
2022/05/09 09:33:50;;;;;;;;;;;20.90;55.80;;;;;;5012482;28;19921;-52
2022/05/09 09:36:15;;;;;;;;;;;20.90;55.80;;;;;;5038294;28;19939;-53
2022/05/09 09:38:41;;;;;;;;;;;20.90;55.80;;;;;;5011094;28;19913;-51
2022/05/09 09:41:20;;;;;;;;;;;20.90;55.90;;;;;;5035695;28;20480;-54
2022/05/09 09:43:45;;;;;;;;;;;20.90;55.80;;;;;;5009734;28;19944;-55
2022/05/09 09:46:11;;;;;;;;;;;20.90;55.80;;;;;;5011801;28;20378;-51
2022/05/09 09:48:36;;;;;;;;;;;20.90;55.90;;;;;;5009554;28;19925;-53
2022/05/09 09:51:03;;;;;;;;;;;20.90;55.90;;;;;;5024453;28;19917;-54
2022/05/09 09:53:52;;;;;;;;;;;20.90;55.90;;;;;;5011002;28;19913;-55
2022/05/09 09:56:20;;;;;;;;;;;21.00;56.00;;;;;;5009646;28;19952;-53
2022/05/09 09:58:46;;;;;;;;;;;20.90;55.80;;;;;;5010316;28;20353;-54
2022/05/09 10:01:12;;;;;;;;;;;21.00;55.90;;;;;;5024164;28;20020;-54
2022/05/09 10:03:44;;;;;;;;;;;21.00;55.90;;;;;;5008901;28;19921;-55
2022/05/09 10:06:20;;;;;;;;;;;20.90;55.90;;;;;;5024965;28;19921;-54
2022/05/09 10:08:46;;;;;;;;;;;21.00;55.90;;;;;;5011486;28;19917;-53
2022/05/09 10:11:12;;;;;;;;;;;21.00;55.80;;;;;;4994472;28;19982;-52
2022/05/09 10:13:44;;;;;;;;;;;21.00;55.80;;;;;;5010334;28;19941;-51
2022/05/09 10:16:21;;;;;;;;;;;20.90;55.60;;;;;;5023716;28;19959;-51
2022/05/09 10:18:46;;;;;;;;;;;21.00;55.70;;;;;;5008619;28;19913;-51
2022/05/09 10:21:13;;;;;;;;;;;21.00;55.60;;;;;;5023679;28;19921;-53
2022/05/09 10:26:31;;;;;;;;;;;21.00;55.60;;;;;;5023868;28;19956;-51
2022/05/09 10:29:06;;;;;;;;;;;21.00;55.60;;;;;;5010762;28;19953;-53
2022/05/09 10:31:58;;;;;;;;;;;21.00;55.60;;;;;;5013033;28;19917;-51
2022/05/09 10:34:26;;;;;;;;;;;21.00;55.60;;;;;;5004234;28;19918;-51
2022/05/09 10:36:53;;;;;;;;;;;21.00;55.60;;;;;;5014184;28;20505;-51
2022/05/09 10:39:26;;;;;;;;;;;21.10;55.60;;;;;;5022745;28;20452;-51
2022/05/09 10:41:53;;;;;;;;;;;21.10;55.60;;;;;;5022561;28;19913;-52
2022/05/09 10:44:18;;;;;;;;;;;21.00;55.50;;;;;;5024365;28;19953;-54
2022/05/09 10:46:48;;;;;;;;;;;21.00;55.60;;;;;;5023616;28;20359;-50
2022/05/09 10:49:19;;;;;;;;;;;21.00;55.60;;;;;;5022971;28;19991;-52
2022/05/09 10:52:04;;;;;;;;;;;21.00;55.60;;;;;;5023050;28;19992;-51
2022/05/09 10:54:50;;;;;;;;;;;21.00;55.60;;;;;;5025128;28;20101;-51
2022/05/09 10:57:34;;;;;;;;;;;21.00;55.60;;;;;;5023464;28;19958;-52
2022/05/09 11:00:05;;;;;;;;;;;21.00;55.60;;;;;;5023511;28;19913;-51
2022/05/09 11:02:33;;;;;;;;;;;21.00;55.60;;;;;;5024680;28;19957;-52
2022/05/09 11:04:59;;;;;;;;;;;21.00;55.70;;;;;;5024955;28;19913;-52
2022/05/09 11:07:24;;;;;;;;;;;21.00;55.70;;;;;;5022734;28;20541;-51
2022/05/09 11:10:08;;;;;;;;;;;21.00;55.60;;;;;;5024413;28;19913;-53
2022/05/09 11:12:40;;;;;;;;;;;21.00;55.70;;;;;;5024224;28;19913;-52
2022/05/09 11:15:13;;;;;;;;;;;21.00;55.60;;;;;;5024345;28;20402;-53
2022/05/09 11:17:45;;;;;;;;;;;21.00;55.80;;;;;;5024617;28;19913;-52
2022/05/09 11:20:13;;;;;;;;;;;21.00;55.80;;;;;;5023938;28;19914;-52
2022/05/09 11:22:48;;;;;;;;;;;21.00;55.80;;;;;;5023769;28;19978;-50
2022/05/09 11:25:14;;;;;;;;;;;21.00;55.70;;;;;;5024624;28;20008;-53
2022/05/09 11:27:47;;;;;;;;;;;21.10;55.80;;;;;;5024510;28;20012;-51
2022/05/09 11:30:24;;;;;;;;;;;21.00;55.70;;;;;;5022464;28;19921;-53
2022/05/09 11:32:53;;;;;;;;;;;21.00;55.60;;;;;;5024597;28;19913;-51
2022/05/09 11:35:28;;;;;;;;;;;21.00;55.70;;;;;;5024041;28;19948;-49
2022/05/09 11:38:05;;;;;;;;;;;21.00;55.70;;;;;;5013847;28;20410;-50
2022/05/09 11:40:38;;;;;;;;;;;21.10;55.70;;;;;;5023711;28;20286;-51
2022/05/09 11:43:28;;;;;;;;;;;21.10;55.70;;;;;;5023731;28;19913;-51
2022/05/09 11:46:01;;;;;;;;;;;21.10;55.70;;;;;;5024308;28;20386;-51
2022/05/09 11:48:30;;;;;;;;;;;21.10;55.70;;;;;;5023015;28;19917;-54
2022/05/09 11:51:12;;;;;;;;;;;21.10;55.70;;;;;;5014109;28;19917;-51
2022/05/09 11:53:39;;;;;;;;;;;21.10;55.70;;;;;;5021211;28;19945;-53
2022/05/09 11:56:05;;;;;;;;;;;21.10;55.70;;;;;;5023395;28;20388;-50
2022/05/09 11:58:37;;;;;;;;;;;21.10;55.80;;;;;;5022469;28;19913;-52
2022/05/09 12:01:03;;;;;;;;;;;21.10;55.70;;;;;;5025127;28;19914;-53
2022/05/09 12:03:40;;;;;;;;;;;21.10;55.70;;;;;;5029250;28;19975;-48
2022/05/09 12:06:13;;;;;;;;;;;21.10;55.90;;;;;;5029619;28;19914;-53
2022/05/09 12:08:42;;;;;;;;;;;21.10;55.90;;;;;;5027410;28;20024;-56
2022/05/09 12:11:18;;;;;;;;;;;21.10;55.90;;;;;;5028903;28;19917;-54
2022/05/09 12:13:43;;;;;;;;;;;21.10;55.90;;;;;;5028689;28;20400;-55
2022/05/09 12:16:09;;;;;;;;;;;21.10;55.80;;;;;;5029258;28;20011;-57
2022/05/09 12:18:47;;;;;;;;;;;21.10;55.90;;;;;;5028179;28;19913;-54
2022/05/09 12:21:14;;;;;;;;;;;21.10;55.90;;;;;;5028630;28;19996;-53
2022/05/09 12:23:39;;;;;;;;;;;21.20;56.00;;;;;;5026667;28;19971;-54
2022/05/09 12:26:05;;;;;;;;;;;21.20;55.80;;;;;;5028185;28;19941;-57
2022/05/09 12:28:32;;;;;;;;;;;21.20;55.80;;;;;;5027295;28;19924;-55
2022/05/09 12:30:58;;;;;;;;;;;21.20;55.70;;;;;;5028514;28;19917;-53
2022/05/09 12:33:26;;;;;;;;;;;21.20;55.60;;;;;;5026382;28;20375;-54
2022/05/09 12:35:54;;;;;;;;;;;21.20;55.60;;;;;;5028258;28;19913;-51
2022/05/09 12:38:24;;;;;;;;;;;21.20;55.60;;;;;;5027256;28;20079;-56
2022/05/09 12:41:18;;;;;;;;;;;21.20;55.60;;;;;;5028174;28;19921;-52
2022/05/09 12:43:45;;;;;;;;;;;21.20;56.00;;;;;;5014310;28;19944;-54
2022/05/09 12:46:16;;;;;;;;;;;21.20;56.00;;;;;;5027496;28;20287;-52
2022/05/09 12:48:42;;;;;;;;;;;21.30;55.90;;;;;;5024564;28;19917;-57
2022/05/09 12:51:09;;;;;;;;;;;21.20;55.90;;;;;;5027914;28;19932;-52
2022/05/09 12:53:34;;;;;;;;;;;21.20;56.00;;;;;;5026244;28;20418;-52
2022/05/09 12:56:00;;;;;;;;;;;21.30;56.20;;;;;;5015245;28;19913;-57
2022/05/09 12:58:25;;;;;;;;;;;21.20;56.00;;;;;;5012413;28;19917;-55
2022/05/09 13:00:57;;;;;;;;;;;21.30;56.40;;;;;;5026924;28;20298;-54
2022/05/09 13:03:23;;;;;;;;;;;21.30;56.10;;;;;;5027336;28;19952;-53
2022/05/09 13:05:48;;;;;;;;;;;21.30;56.00;;;;;;5026842;28;20386;-55
2022/05/09 13:08:14;;;;;;;;;;;21.30;56.00;;;;;;5027392;28;19963;-55
2022/05/09 13:11:06;;;;;;;;;;;21.30;56.00;;;;;;5026950;28;20386;-53
2022/05/09 13:13:32;;;;;;;;;;;21.30;56.00;;;;;;5013393;28;19920;-56
2022/05/09 13:15:57;;;;;;;;;;;21.30;56.30;;;;;;5027772;28;19947;-55
2022/05/09 13:18:25;;;;;;;;;;;21.30;56.70;;;;;;5026692;28;20434;-56
2022/05/09 13:20:51;;;;;;;;;;;21.30;56.00;;;;;;5028108;28;19920;-54
2022/05/09 13:23:17;;;;;;;;;;;21.30;56.00;;;;;;5026249;28;19921;-58
2022/05/09 13:25:49;;;;;;;;;;;21.30;56.10;;;;;;5026751;28;19924;-56
2022/05/09 13:28:15;;;;;;;;;;;21.30;56.10;;;;;;5028149;28;19917;-54
2022/05/09 13:30:44;;;;;;;;;;;21.30;56.00;;;;;;5026607;28;20463;-57
2022/05/09 13:33:13;;;;;;;;;;;21.30;56.30;;;;;;5027191;28;20004;-58
2022/05/09 13:35:39;;;;;;;;;;;21.30;56.10;;;;;;5026661;28;19921;-53
2022/05/09 13:38:21;;;;;;;;;;;21.30;56.00;;;;;;5026232;28;19917;-58
2022/05/09 13:40:47;;;;;;;;;;;21.30;56.10;;;;;;5026005;28;19913;-56
2022/05/09 13:43:12;;;;;;;;;;;21.30;56.00;;;;;;5025157;28;19924;-57
2022/05/09 13:45:38;;;;;;;;;;;21.40;56.10;;;;;;5024524;28;19917;-55
2022/05/09 13:48:07;;;;;;;;;;;21.30;56.30;;;;;;5024574;28;19970;-59
2022/05/09 13:50:34;;;;;;;;;;;21.40;56.30;;;;;;5023837;28;19921;-55
2022/05/09 13:53:03;;;;;;;;;;;21.40;56.10;;;;;;5025383;28;20557;-59
2022/05/09 13:55:30;;;;;;;;;;;21.40;56.20;;;;;;5025785;28;19913;-59
2022/05/09 13:57:55;;;;;;;;;;;21.40;56.10;;;;;;5026215;28;19924;-55
2022/05/09 14:00:22;;;;;;;;;;;21.40;56.20;;;;;;5024903;28;19917;-57
2022/05/09 14:02:51;;;;;;;;;;;21.40;56.10;;;;;;5024371;28;19917;-56
2022/05/09 14:05:24;;;;;;;;;;;21.40;56.00;;;;;;5024244;28;20447;-56
2022/05/09 14:07:50;;;;;;;;;;;21.40;56.10;;;;;;5024244;28;19917;-57
2022/05/09 14:10:29;;;;;;;;;;;21.40;56.40;;;;;;5024228;28;19974;-58
2022/05/09 14:12:54;;;;;;;;;;;21.40;56.10;;;;;;5023641;28;19914;-58
2022/05/09 14:15:21;;;;;;;;;;;21.40;56.10;;;;;;5023488;28;19928;-57
2022/05/09 14:17:50;;;;;;;;;;;21.40;56.00;;;;;;5023911;28;19923;-58
2022/05/09 14:20:20;;;;;;;;;;;21.40;56.20;;;;;;5023171;28;20131;-55
2022/05/09 14:22:46;;;;;;;;;;;21.50;56.30;;;;;;5023393;28;19917;-58
2022/05/09 14:31:18;;;;;;;;;;;21.40;56.10;;;;;;4990073;28;25636;-58
2022/05/09 14:33:45;;;;;;;;;;;21.40;56.00;;;;;;5002557;28;20401;-55